CDT,Max TemperatureF,Mean TemperatureF,Min TemperatureF,Max Dew PointF,MeanDew PointF,Min DewpointF,Max Humidity, Mean Humidity, Min Humidity, Max Sea Level PressureIn, Mean Sea Level PressureIn, Min Sea Level PressureIn, Max VisibilityMiles, Mean VisibilityMiles, Min VisibilityMiles, Max Wind SpeedMPH, Mean Wind SpeedMPH, Max Gust SpeedMPH,PrecipitationIn, CloudCover, Events, WindDirDegrees
2013-3-1,24,16,6,18,15,3,86,79,73,30.43,30.38,30.30,10,10,7,23,17,26,0.00,5,Snow,44
2013-3-2,26,13,0,18,8,-6,86,75,51,30.37,30.30,30.19,10,10,10,9,4,,0.00,1,,93
2013-3-3,26,14,3,19,11,0,92,76,58,30.19,30.13,30.07,10,10,10,21,4,,0.00,3,,56
2013-3-4,28,26,23,25,19,12,86,75,59,30.11,30.08,30.04,10,10,4,30,16,32,0.00,7,Snow,74
2013-3-5,28,24,19,25,22,14,93,84,74,30.30,30.18,30.07,10,6,0,30,16,38,0.00,8,Snow,56
2013-3-6,28,18,8,16,12,7,92,74,55,30.40,30.36,30.30,10,10,10,12,4,,0.00,1,,301
2013-3-7,26,14,3,21,12,0,93,82,69,30.43,30.39,30.35,10,10,10,14,5,,0.00,0,,86
2013-3-8,33,22,10,28,20,7,93,86,64,30.37,30.27,30.15,10,8,0,10,3,,0.00,2,Fog,57
2013-3-9,33,28,24,30,29,21,100,90,86,30.14,29.90,29.76,7,2,0,14,6,,0.00,7,Snow,58
2013-3-10,35,32,28,34,27,21,93,83,74,30.03,29.95,29.80,10,10,2,21,9,20,0.00,8,,359
2013-3-11,28,26,24,23,20,18,86,77,69,29.96,29.82,29.75,10,10,5,21,14,23,0.00,8,Snow,20
2013-3-12,24,22,19,18,14,7,86,69,54,30.15,29.93,29.78,10,10,10,20,9,23,0.00,7,,326
2013-3-13,33,20,6,14,7,0,73,52,38,30.33,30.26,30.15,10,10,10,12,8,,0.00,0,,267
2013-3-14,39,26,14,28,19,9,86,69,58,30.23,30.11,29.97,10,10,10,13,5,,0.00,4,,226
2013-3-15,33,26,19,28,20,16,93,77,64,30.05,30.00,29.96,10,8,1,22,12,24,0.00,6,Snow,59
2013-3-16,21,14,6,16,8,-4,93,70,49,30.27,30.10,30.01,10,8,1,24,10,29,0.00,4,Snow,314
2013-3-17,24,12,0,18,4,-8,86,71,56,30.31,30.18,29.94,10,10,7,18,8,20,0.00,4,Snow,39
2013-3-18,30,24,19,27,19,12,93,79,59,29.94,29.65,29.50,10,6,0,26,9,33,0.00,8,Snow,167
2013-3-19,23,16,10,12,6,0,79,64,49,30.06,29.86,29.60,10,9,5,30,22,36,0.00,2,Snow,274
2013-3-20,21,14,6,7,2,-2,72,60,49,30.13,30.09,30.04,10,10,10,25,16,31,0.00,4,,304
2013-3-21,30,16,3,16,8,0,85,63,44,30.11,30.07,30.03,10,10,10,10,6,,0.00,1,,272
2013-3-22,30,19,8,25,16,3,86,77,63,30.10,30.08,30.06,10,10,10,9,4,,0.00,0,,58
2013-3-23,32,23,14,28,21,10,93,85,74,30.18,30.14,30.10,10,10,2,14,3,,0.00,4,,53
2013-3-24,30,26,23,27,24,18,93,82,64,30.15,30.10,30.05,10,9,2,20,9,16,0.00,7,Snow,61
2013-3-25,37,30,23,28,21,16,87,71,52,30.20,30.13,30.06,10,10,10,15,8,,0.00,4,,29
2013-3-26,37,34,30,28,25,18,86,72,45,30.27,30.25,30.20,10,10,10,6,1,,0.00,8,,321
2013-3-27,42,35,28,27,21,10,80,58,29,30.34,30.30,30.28,10,10,10,7,1,,0.00,4,,142
2013-3-28,42,32,21,28,22,14,93,71,31,30.35,30.31,30.26,10,10,10,8,2,,0.00,0,,152
2013-3-29,37,30,24,30,25,18,93,76,60,30.29,30.21,30.06,10,10,10,8,2,,0.00,3,,66
2013-3-30,50,42,33,41,33,28,100,79,43,30.05,29.86,29.76,10,6,0,14,4,,0.00,5,Fog,270
2013-3-31,39,32,26,30,21,7,87,60,38,30.04,29.82,29.71,10,10,2,28,15,31,0.00,6,,295